馬公航空站 - ATIS

METAR RCQC 310830Z 20011KT 9999 FEW010 SCT016 BKN100 29/25 Q1009 NOSIG RMK A2981=

站台狀態:Offline
最後更新:2020-05-31 17:00:01